sensor_id;sensor_type;location;lat;lon;timestamp;pressure;altitude;pressure_sealevel;temperature;humidity
48846;BME280;34665;51.886;5.436;2023-04-28T00:01:05;101204.66;;;17.91;47.86
48846;BME280;34665;51.886;5.436;2023-04-28T00:03:31;101196.41;;;17.86;48.35
48846;BME280;34665;51.886;5.436;2023-04-28T00:05:56;101188.66;;;17.66;47.91
48846;BME280;34665;51.886;5.436;2023-04-28T00:08:22;101185.81;;;17.61;47.67
48846;BME280;34665;51.886;5.436;2023-04-28T00:10:51;101179.31;;;17.38;48.66
48846;BME280;34665;51.886;5.436;2023-04-28T00:13:17;101198.50;;;17.37;48.07
48846;BME280;34665;51.886;5.436;2023-04-28T00:15:43;101192.66;;;17.52;47.87
48846;BME280;34665;51.886;5.436;2023-04-28T00:18:08;101193.59;;;17.69;47.93
48846;BME280;34665;51.886;5.436;2023-04-28T00:20:33;101183.69;;;17.51;48.13
48846;BME280;34665;51.886;5.436;2023-04-28T00:22:59;101172.75;;;17.46;48.04
48846;BME280;34665;51.886;5.436;2023-04-28T00:25:24;101173.22;;;17.43;47.79
48846;BME280;34665;51.886;5.436;2023-04-28T00:27:49;101175.25;;;17.47;47.43
48846;BME280;34665;51.886;5.436;2023-04-28T00:30:15;101163.00;;;17.45;47.24
48846;BME280;34665;51.886;5.436;2023-04-28T00:32:41;101156.06;;;17.61;47.20
48846;BME280;34665;51.886;5.436;2023-04-28T00:35:06;101155.75;;;17.57;46.87
48846;BME280;34665;51.886;5.436;2023-04-28T00:37:34;101143.28;;;17.44;47.04
48846;BME280;34665;51.886;5.436;2023-04-28T00:40:00;101138.06;;;17.19;47.20
48846;BME280;34665;51.886;5.436;2023-04-28T00:42:26;101133.75;;;17.42;48.96
48846;BME280;34665;51.886;5.436;2023-04-28T00:44:51;101134.88;;;17.22;50.32
48846;BME280;34665;51.886;5.436;2023-04-28T00:47:16;101127.50;;;17.41;51.14
48846;BME280;34665;51.886;5.436;2023-04-28T00:49:42;101129.63;;;17.51;51.14
48846;BME280;34665;51.886;5.436;2023-04-28T00:52:07;101123.50;;;17.44;51.96
48846;BME280;34665;51.886;5.436;2023-04-28T00:54:33;101129.16;;;17.54;51.86
48846;BME280;34665;51.886;5.436;2023-04-28T00:56:59;101123.75;;;17.42;52.49
48846;BME280;34665;51.886;5.436;2023-04-28T00:59:27;101113.53;;;17.44;52.88
48846;BME280;34665;51.886;5.436;2023-04-28T01:01:53;101109.28;;;17.37;53.62
48846;BME280;34665;51.886;5.436;2023-04-28T01:04:19;101121.28;;;17.29;52.49
48846;BME280;34665;51.886;5.436;2023-04-28T01:06:44;101115.50;;;17.25;52.91
48846;BME280;34665;51.886;5.436;2023-04-28T01:09:10;101110.69;;;17.51;52.79
48846;BME280;34665;51.886;5.436;2023-04-28T01:11:36;101111.88;;;17.31;52.77
48846;BME280;34665;51.886;5.436;2023-04-28T01:14:08;101106.09;;;17.16;53.02
48846;BME280;34665;51.886;5.436;2023-04-28T01:16:36;101119.63;;;17.40;52.94
48846;BME280;34665;51.886;5.436;2023-04-28T01:19:05;101110.00;;;17.32;52.58
48846;BME280;34665;51.886;5.436;2023-04-28T01:21:33;101105.88;;;17.41;52.74
48846;BME280;34665;51.886;5.436;2023-04-28T01:24:21;101107.88;;;17.22;52.69
48846;BME280;34665;51.886;5.436;2023-04-28T01:26:48;101095.50;;;17.14;52.83
48846;BME280;34665;51.886;5.436;2023-04-28T01:29:13;101098.13;;;17.21;52.74
48846;BME280;34665;51.886;5.436;2023-04-28T01:31:40;101098.28;;;16.96;52.30
48846;BME280;34665;51.886;5.436;2023-04-28T01:34:06;101097.72;;;17.05;52.56
48846;BME280;34665;51.886;5.436;2023-04-28T01:36:31;101101.06;;;17.31;52.12
48846;BME280;34665;51.886;5.436;2023-04-28T01:38:57;101096.00;;;17.35;51.84
48846;BME280;34665;51.886;5.436;2023-04-28T01:41:23;101079.78;;;17.11;52.50
48846;BME280;34665;51.886;5.436;2023-04-28T01:43:48;101075.09;;;17.18;53.05
48846;BME280;34665;51.886;5.436;2023-04-28T01:46:14;101078.59;;;17.19;52.82
48846;BME280;34665;51.886;5.436;2023-04-28T01:48:39;101076.44;;;16.97;53.33
48846;BME280;34665;51.886;5.436;2023-04-28T01:51:05;101068.75;;;17.13;53.02
48846;BME280;34665;51.886;5.436;2023-04-28T01:53:30;101061.59;;;17.18;53.26
48846;BME280;34665;51.886;5.436;2023-04-28T01:55:56;101069.22;;;17.10;53.47
48846;BME280;34665;51.886;5.436;2023-04-28T01:58:23;101063.81;;;17.10;53.61
48846;BME280;34665;51.886;5.436;2023-04-28T02:00:49;101065.31;;;17.17;53.35
48846;BME280;34665;51.886;5.436;2023-04-28T02:03:15;101055.22;;;17.01;53.54
48846;BME280;34665;51.886;5.436;2023-04-28T02:05:41;101056.22;;;16.88;53.11
48846;BME280;34665;51.886;5.436;2023-04-28T02:08:06;101059.16;;;16.86;53.29
48846;BME280;34665;51.886;5.436;2023-04-28T02:10:32;101046.47;;;16.87;53.62
48846;BME280;34665;51.886;5.436;2023-04-28T02:12:58;101045.81;;;17.03;53.13
48846;BME280;34665;51.886;5.436;2023-04-28T02:15:23;101047.06;;;16.89;53.55
48846;BME280;34665;51.886;5.436;2023-04-28T02:17:48;101039.16;;;16.75;54.16
48846;BME280;34665;51.886;5.436;2023-04-28T02:20:14;101041.06;;;16.75;54.09
48846;BME280;34665;51.886;5.436;2023-04-28T02:22:39;101036.22;;;16.65;54.19
48846;BME280;34665;51.886;5.436;2023-04-28T02:25:05;101028.47;;;16.69;54.43
48846;BME280;34665;51.886;5.436;2023-04-28T02:27:35;101029.44;;;16.74;54.73
48846;BME280;34665;51.886;5.436;2023-04-28T02:30:04;101015.91;;;16.62;54.73
48846;BME280;34665;51.886;5.436;2023-04-28T02:32:29;101020.31;;;16.99;54.56
48846;BME280;34665;51.886;5.436;2023-04-28T02:34:55;101018.06;;;16.84;54.71
48846;BME280;34665;51.886;5.436;2023-04-28T02:37:21;101001.34;;;16.75;55.02
48846;BME280;34665;51.886;5.436;2023-04-28T02:39:48;100987.63;;;16.65;55.33
48846;BME280;34665;51.886;5.436;2023-04-28T02:42:13;100983.59;;;16.56;55.53
48846;BME280;34665;51.886;5.436;2023-04-28T02:44:39;100980.03;;;16.86;54.88
48846;BME280;34665;51.886;5.436;2023-04-28T02:47:05;100973.41;;;16.70;55.01
48846;BME280;34665;51.886;5.436;2023-04-28T02:49:30;100973.41;;;16.82;55.46
48846;BME280;34665;51.886;5.436;2023-04-28T02:51:56;100981.44;;;17.00;55.73
48846;BME280;34665;51.886;5.436;2023-04-28T02:54:21;100977.75;;;16.95;56.31
48846;BME280;34665;51.886;5.436;2023-04-28T02:56:55;100973.19;;;16.95;56.96
48846;BME280;34665;51.886;5.436;2023-04-28T02:59:21;100975.22;;;17.00;57.27
48846;BME280;34665;51.886;5.436;2023-04-28T03:01:48;100970.75;;;17.05;56.63
48846;BME280;34665;51.886;5.436;2023-04-28T03:04:14;100977.19;;;16.92;57.07
48846;BME280;34665;51.886;5.436;2023-04-28T03:06:40;100978.16;;;17.10;56.60
48846;BME280;34665;51.886;5.436;2023-04-28T03:09:07;100972.34;;;16.83;57.05
48846;BME280;34665;51.886;5.436;2023-04-28T03:11:33;100971.56;;;16.82;57.96
48846;BME280;34665;51.886;5.436;2023-04-28T03:13:59;100975.19;;;16.76;57.69
48846;BME280;34665;51.886;5.436;2023-04-28T03:16:25;100971.06;;;16.85;56.97
48846;BME280;34665;51.886;5.436;2023-04-28T03:18:52;100965.69;;;16.85;56.85
48846;BME280;34665;51.886;5.436;2023-04-28T03:21:18;100968.78;;;17.01;56.40
48846;BME280;34665;51.886;5.436;2023-04-28T03:23:43;100967.34;;;16.98;56.47
48846;BME280;34665;51.886;5.436;2023-04-28T03:26:09;100964.50;;;16.93;56.44
48846;BME280;34665;51.886;5.436;2023-04-28T03:28:34;100957.47;;;16.80;56.53
48846;BME280;34665;51.886;5.436;2023-04-28T03:30:59;100956.28;;;16.76;56.85
48846;BME280;34665;51.886;5.436;2023-04-28T03:33:25;100954.75;;;16.68;57.61
48846;BME280;34665;51.886;5.436;2023-04-28T03:35:51;100951.81;;;16.70;57.15
48846;BME280;34665;51.886;5.436;2023-04-28T03:38:18;100955.22;;;16.65;57.50
48846;BME280;34665;51.886;5.436;2023-04-28T03:40:44;100945.72;;;16.74;57.58
48846;BME280;34665;51.886;5.436;2023-04-28T03:43:09;100943.84;;;16.63;58.21
48846;BME280;34665;51.886;5.436;2023-04-28T03:45:40;100942.91;;;16.69;57.95
48846;BME280;34665;51.886;5.436;2023-04-28T03:48:07;100947.94;;;16.77;57.94
48846;BME280;34665;51.886;5.436;2023-04-28T03:50:32;100946.75;;;16.73;57.79
48846;BME280;34665;51.886;5.436;2023-04-28T03:52:58;100945.22;;;16.66;57.90
48846;BME280;34665;51.886;5.436;2023-04-28T03:55:24;100941.25;;;16.80;57.39
48846;BME280;34665;51.886;5.436;2023-04-28T03:57:50;100933.75;;;16.82;58.45
48846;BME280;34665;51.886;5.436;2023-04-28T04:00:16;100936.19;;;16.84;58.59
48846;BME280;34665;51.886;5.436;2023-04-28T04:02:44;100918.72;;;16.98;58.66
48846;BME280;34665;51.886;5.436;2023-04-28T04:05:10;100923.06;;;16.99;58.84
48846;BME280;34665;51.886;5.436;2023-04-28T04:07:35;100919.53;;;17.11;58.92
48846;BME280;34665;51.886;5.436;2023-04-28T04:10:02;100922.59;;;17.02;59.78
48846;BME280;34665;51.886;5.436;2023-04-28T04:12:27;100918.38;;;17.18;60.18
48846;BME280;34665;51.886;5.436;2023-04-28T04:14:53;100905.44;;;17.20;60.53
48846;BME280;34665;51.886;5.436;2023-04-28T04:17:19;100915.31;;;17.15;61.02
48846;BME280;34665;51.886;5.436;2023-04-28T04:19:44;100913.09;;;17.12;61.73
48846;BME280;34665;51.886;5.436;2023-04-28T04:22:11;100911.47;;;16.99;61.69
48846;BME280;34665;51.886;5.436;2023-04-28T04:24:36;100904.50;;;16.91;61.77
48846;BME280;34665;51.886;5.436;2023-04-28T04:27:02;100896.47;;;17.32;61.20
48846;BME280;34665;51.886;5.436;2023-04-28T04:29:31;100906.00;;;17.23;60.25
48846;BME280;34665;51.886;5.436;2023-04-28T04:31:59;100905.09;;;17.05;61.53
48846;BME280;34665;51.886;5.436;2023-04-28T04:34:25;100902.81;;;17.67;60.01
48846;BME280;34665;51.886;5.436;2023-04-28T04:36:50;100903.66;;;17.14;61.44
48846;BME280;34665;51.886;5.436;2023-04-28T04:39:16;100899.28;;;17.25;61.41
48846;BME280;34665;51.886;5.436;2023-04-28T04:41:42;100896.69;;;17.71;60.41
48846;BME280;34665;51.886;5.436;2023-04-28T04:44:36;100888.84;;;17.29;61.50
48846;BME280;34665;51.886;5.436;2023-04-28T04:47:05;100890.47;;;17.30;61.57
48846;BME280;34665;51.886;5.436;2023-04-28T04:49:32;100892.16;;;17.19;61.79
48846;BME280;34665;51.886;5.436;2023-04-28T04:52:00;100889.19;;;17.32;61.33
48846;BME280;34665;51.886;5.436;2023-04-28T04:54:27;100893.69;;;17.56;60.80
48846;BME280;34665;51.886;5.436;2023-04-28T04:56:56;100901.22;;;17.54;61.02
48846;BME280;34665;51.886;5.436;2023-04-28T04:59:39;100899.66;;;17.29;61.00
48846;BME280;34665;51.886;5.436;2023-04-28T05:02:10;100887.59;;;17.48;61.53
48846;BME280;34665;51.886;5.436;2023-04-28T05:04:35;100881.03;;;17.44;61.55
48846;BME280;34665;51.886;5.436;2023-04-28T05:07:00;100882.50;;;17.52;61.62
48846;BME280;34665;51.886;5.436;2023-04-28T05:09:29;100880.41;;;17.54;61.95
48846;BME280;34665;51.886;5.436;2023-04-28T05:11:58;100877.22;;;17.57;62.04
48846;BME280;34665;51.886;5.436;2023-04-28T05:14:24;100876.06;;;17.53;62.29
48846;BME280;34665;51.886;5.436;2023-04-28T05:16:50;100878.25;;;17.68;63.22
48846;BME280;34665;51.886;5.436;2023-04-28T05:19:22;100861.84;;;17.75;65.07
48846;BME280;34665;51.886;5.436;2023-04-28T05:21:48;100859.63;;;17.43;70.51
48846;BME280;34665;51.886;5.436;2023-04-28T05:24:14;100856.72;;;17.44;72.88
48846;BME280;34665;51.886;5.436;2023-04-28T05:26:39;100852.78;;;17.52;74.57
48846;BME280;34665;51.886;5.436;2023-04-28T05:29:07;100865.63;;;17.45;77.01
48846;BME280;34665;51.886;5.436;2023-04-28T05:31:33;100865.00;;;17.26;78.01
48846;BME280;34665;51.886;5.436;2023-04-28T05:33:58;100857.47;;;17.28;79.76
48846;BME280;34665;51.886;5.436;2023-04-28T05:36:24;100850.31;;;17.22;82.14
48846;BME280;34665;51.886;5.436;2023-04-28T05:38:50;100854.69;;;17.11;84.03
48846;BME280;34665;51.886;5.436;2023-04-28T05:41:16;100857.81;;;17.31;84.34
48846;BME280;34665;51.886;5.436;2023-04-28T05:43:42;100864.69;;;17.39;84.59
48846;BME280;34665;51.886;5.436;2023-04-28T05:46:08;100869.97;;;17.46;85.37
48846;BME280;34665;51.886;5.436;2023-04-28T05:48:34;100875.31;;;17.29;86.90
48846;BME280;34665;51.886;5.436;2023-04-28T05:51:00;100876.53;;;17.50;87.25
48846;BME280;34665;51.886;5.436;2023-04-28T05:53:26;100874.94;;;17.37;88.61
48846;BME280;34665;51.886;5.436;2023-04-28T05:55:52;100861.09;;;17.33;90.17
48846;BME280;34665;51.886;5.436;2023-04-28T05:58:18;100851.34;;;17.32;91.08
48846;BME280;34665;51.886;5.436;2023-04-28T06:00:44;100839.75;;;17.49;91.98
48846;BME280;34665;51.886;5.436;2023-04-28T06:03:10;100860.78;;;17.47;93.30
48846;BME280;34665;51.886;5.436;2023-04-28T06:05:38;100852.06;;;17.57;94.95
48846;BME280;34665;51.886;5.436;2023-04-28T06:08:05;100849.50;;;17.50;97.61
48846;BME280;34665;51.886;5.436;2023-04-28T06:10:31;100854.53;;;17.58;97.36
48846;BME280;34665;51.886;5.436;2023-04-28T06:12:57;100858.75;;;17.83;96.50
48846;BME280;34665;51.886;5.436;2023-04-28T06:15:22;100857.50;;;17.74;96.84
48846;BME280;34665;51.886;5.436;2023-04-28T06:17:47;100846.16;;;17.89;97.30
48846;BME280;34665;51.886;5.436;2023-04-28T06:20:14;100849.84;;;18.00;97.49
48846;BME280;34665;51.886;5.436;2023-04-28T06:22:40;100843.97;;;18.03;98.79
48846;BME280;34665;51.886;5.436;2023-04-28T06:25:05;100833.63;;;18.34;98.23
48846;BME280;34665;51.886;5.436;2023-04-28T06:27:37;100844.13;;;18.47;97.50
48846;BME280;34665;51.886;5.436;2023-04-28T06:30:02;100827.88;;;18.47;98.62
48846;BME280;34665;51.886;5.436;2023-04-28T06:32:28;100828.94;;;17.95;100.00
48846;BME280;34665;51.886;5.436;2023-04-28T06:34:53;100838.31;;;18.04;100.00
48846;BME280;34665;51.886;5.436;2023-04-28T06:37:18;100844.91;;;17.97;100.00
48846;BME280;34665;51.886;5.436;2023-04-28T06:39:46;100855.63;;;18.38;100.00
48846;BME280;34665;51.886;5.436;2023-04-28T06:42:11;100856.72;;;18.59;100.00
48846;BME280;34665;51.886;5.436;2023-04-28T06:44:40;100864.69;;;18.88;100.00
48846;BME280;34665;51.886;5.436;2023-04-28T06:47:06;100865.66;;;19.16;100.00
48846;BME280;34665;51.886;5.436;2023-04-28T06:49:31;100861.28;;;19.15;100.00
48846;BME280;34665;51.886;5.436;2023-04-28T06:51:59;100861.88;;;19.17;100.00
48846;BME280;34665;51.886;5.436;2023-04-28T06:54:28;100857.66;;;19.31;100.00
48846;BME280;34665;51.886;5.436;2023-04-28T06:56:54;100852.31;;;19.37;100.00
48846;BME280;34665;51.886;5.436;2023-04-28T06:59:22;100847.88;;;18.86;100.00
48846;BME280;34665;51.886;5.436;2023-04-28T07:01:47;100856.53;;;19.27;100.00
48846;BME280;34665;51.886;5.436;2023-04-28T07:04:12;100851.91;;;19.50;100.00
48846;BME280;34665;51.886;5.436;2023-04-28T07:06:38;100848.47;;;19.32;100.00
48846;BME280;34665;51.886;5.436;2023-04-28T07:09:03;100844.31;;;19.02;100.00
48846;BME280;34665;51.886;5.436;2023-04-28T07:11:28;100840.28;;;19.27;100.00
48846;BME280;34665;51.886;5.436;2023-04-28T07:13:53;100845.47;;;19.56;100.00
48846;BME280;34665;51.886;5.436;2023-04-28T07:16:19;100847.41;;;19.61;100.00
48846;BME280;34665;51.886;5.436;2023-04-28T07:18:45;100841.31;;;19.21;100.00
48846;BME280;34665;51.886;5.436;2023-04-28T07:21:10;100833.81;;;19.06;100.00
48846;BME280;34665;51.886;5.436;2023-04-28T07:23:36;100828.66;;;19.59;100.00
48846;BME280;34665;51.886;5.436;2023-04-28T07:26:02;100831.91;;;19.29;100.00
48846;BME280;34665;51.886;5.436;2023-04-28T07:28:28;100831.13;;;19.61;100.00
48846;BME280;34665;51.886;5.436;2023-04-28T07:30:54;100836.44;;;19.78;100.00
48846;BME280;34665;51.886;5.436;2023-04-28T07:33:19;100831.69;;;19.90;100.00
48846;BME280;34665;51.886;5.436;2023-04-28T07:35:45;100838.22;;;19.12;100.00
48846;BME280;34665;51.886;5.436;2023-04-28T07:38:10;100831.00;;;19.78;100.00
48846;BME280;34665;51.886;5.436;2023-04-28T07:40:36;100826.97;;;19.81;100.00
48846;BME280;34665;51.886;5.436;2023-04-28T07:43:01;100817.78;;;19.54;100.00
48846;BME280;34665;51.886;5.436;2023-04-28T07:45:28;100818.78;;;20.03;100.00
48846;BME280;34665;51.886;5.436;2023-04-28T07:47:53;100823.66;;;20.06;100.00
48846;BME280;34665;51.886;5.436;2023-04-28T07:50:18;100823.59;;;19.96;100.00
48846;BME280;34665;51.886;5.436;2023-04-28T07:52:44;100833.50;;;19.80;100.00
48846;BME280;34665;51.886;5.436;2023-04-28T07:55:10;100834.63;;;19.89;100.00
48846;BME280;34665;51.886;5.436;2023-04-28T07:57:35;100829.25;;;19.12;100.00
48846;BME280;34665;51.886;5.436;2023-04-28T08:00:01;100829.72;;;18.64;100.00
48846;BME280;34665;51.886;5.436;2023-04-28T08:02:36;100833.41;;;18.58;100.00
48846;BME280;34665;51.886;5.436;2023-04-28T08:05:02;100831.19;;;18.94;100.00
48846;BME280;34665;51.886;5.436;2023-04-28T08:07:28;100823.50;;;18.86;100.00
48846;BME280;34665;51.886;5.436;2023-04-28T08:09:53;100832.25;;;18.71;100.00
48846;BME280;34665;51.886;5.436;2023-04-28T08:12:19;100828.41;;;18.67;100.00
48846;BME280;34665;51.886;5.436;2023-04-28T08:14:45;100827.19;;;18.57;100.00
48846;BME280;34665;51.886;5.436;2023-04-28T08:17:10;100831.09;;;18.67;100.00
48846;BME280;34665;51.886;5.436;2023-04-28T08:19:36;100828.16;;;18.90;100.00
48846;BME280;34665;51.886;5.436;2023-04-28T08:22:01;100835.75;;;19.11;100.00
48846;BME280;34665;51.886;5.436;2023-04-28T08:24:30;100836.13;;;18.97;100.00
48846;BME280;34665;51.886;5.436;2023-04-28T08:26:59;100833.59;;;19.13;100.00
48846;BME280;34665;51.886;5.436;2023-04-28T08:29:24;100833.97;;;19.22;100.00
48846;BME280;34665;51.886;5.436;2023-04-28T08:31:50;100833.78;;;19.28;100.00
48846;BME280;34665;51.886;5.436;2023-04-28T08:34:15;100832.16;;;19.27;100.00
48846;BME280;34665;51.886;5.436;2023-04-28T08:36:41;100837.09;;;19.35;100.00
48846;BME280;34665;51.886;5.436;2023-04-28T08:39:06;100833.84;;;19.33;100.00
48846;BME280;34665;51.886;5.436;2023-04-28T08:41:32;100834.91;;;19.32;100.00
48846;BME280;34665;51.886;5.436;2023-04-28T08:44:05;100829.69;;;19.53;100.00
48846;BME280;34665;51.886;5.436;2023-04-28T08:46:31;100836.72;;;19.49;100.00
48846;BME280;34665;51.886;5.436;2023-04-28T08:48:58;100841.06;;;19.50;100.00
48846;BME280;34665;51.886;5.436;2023-04-28T08:51:26;100835.13;;;19.03;100.00
48846;BME280;34665;51.886;5.436;2023-04-28T08:53:53;100837.53;;;19.22;100.00
48846;BME280;34665;51.886;5.436;2023-04-28T08:56:19;100835.75;;;19.11;100.00
48846;BME280;34665;51.886;5.436;2023-04-28T08:58:46;100834.44;;;19.13;100.00
48846;BME280;34665;51.886;5.436;2023-04-28T09:01:13;100831.03;;;19.23;100.00
48846;BME280;34665;51.886;5.436;2023-04-28T09:03:38;100833.63;;;19.40;100.00
48846;BME280;34665;51.886;5.436;2023-04-28T09:06:04;100833.44;;;19.47;100.00
48846;BME280;34665;51.886;5.436;2023-04-28T09:08:29;100829.03;;;19.68;100.00
48846;BME280;34665;51.886;5.436;2023-04-28T09:11:05;100828.63;;;19.54;100.00
48846;BME280;34665;51.886;5.436;2023-04-28T09:13:32;100823.41;;;19.47;100.00
48846;BME280;34665;51.886;5.436;2023-04-28T09:15:59;100827.31;;;19.57;100.00
48846;BME280;34665;51.886;5.436;2023-04-28T09:18:25;100823.41;;;19.20;100.00
48846;BME280;34665;51.886;5.436;2023-04-28T09:20:51;100829.13;;;19.51;100.00
48846;BME280;34665;51.886;5.436;2023-04-28T09:23:20;100837.53;;;20.04;100.00
48846;BME280;34665;51.886;5.436;2023-04-28T09:28:26;100827.59;;;20.20;100.00
48846;BME280;34665;51.886;5.436;2023-04-28T09:30:51;100825.69;;;19.88;100.00
48846;BME280;34665;51.886;5.436;2023-04-28T09:33:17;100829.78;;;20.24;100.00
48846;BME280;34665;51.886;5.436;2023-04-28T09:35:42;100826.50;;;19.89;100.00
48846;BME280;34665;51.886;5.436;2023-04-28T09:38:09;100830.06;;;20.22;100.00
48846;BME280;34665;51.886;5.436;2023-04-28T09:40:54;100825.22;;;19.91;100.00
48846;BME280;34665;51.886;5.436;2023-04-28T09:43:24;100826.19;;;20.18;100.00
48846;BME280;34665;51.886;5.436;2023-04-28T09:45:49;100832.94;;;20.48;100.00
48846;BME280;34665;51.886;5.436;2023-04-28T09:48:15;100828.22;;;20.33;100.00
48846;BME280;34665;51.886;5.436;2023-04-28T09:50:41;100827.34;;;20.22;100.00
48846;BME280;34665;51.886;5.436;2023-04-28T09:53:07;100826.44;;;20.49;100.00
48846;BME280;34665;51.886;5.436;2023-04-28T09:55:35;100828.09;;;20.60;100.00
48846;BME280;34665;51.886;5.436;2023-04-28T09:58:01;100833.72;;;20.43;100.00
48846;BME280;34665;51.886;5.436;2023-04-28T10:00:30;100827.31;;;20.65;100.00
48846;BME280;34665;51.886;5.436;2023-04-28T10:02:57;100833.38;;;20.77;100.00
48846;BME280;34665;51.886;5.436;2023-04-28T10:05:24;100828.97;;;20.66;100.00
48846;BME280;34665;51.886;5.436;2023-04-28T10:07:49;100822.59;;;20.45;100.00
48846;BME280;34665;51.886;5.436;2023-04-28T10:10:15;100817.25;;;20.17;100.00
48846;BME280;34665;51.886;5.436;2023-04-28T10:12:41;100819.00;;;20.82;100.00
48846;BME280;34665;51.886;5.436;2023-04-28T10:15:08;100821.47;;;20.41;100.00
48846;BME280;34665;51.886;5.436;2023-04-28T10:17:33;100822.59;;;20.45;100.00
48846;BME280;34665;51.886;5.436;2023-04-28T10:20:00;100822.44;;;20.67;100.00
48846;BME280;34665;51.886;5.436;2023-04-28T10:22:41;100817.19;;;21.03;100.00
48846;BME280;34665;51.886;5.436;2023-04-28T10:25:25;100817.75;;;21.00;100.00
48846;BME280;34665;51.886;5.436;2023-04-28T10:27:51;100817.78;;;21.16;100.00
48846;BME280;34665;51.886;5.436;2023-04-28T10:30:18;100839.97;;;20.92;100.00
48846;BME280;34665;51.886;5.436;2023-04-28T10:32:44;100836.16;;;20.83;100.00
48846;BME280;34665;51.886;5.436;2023-04-28T10:38:03;100834.06;;;20.57;100.00
48846;BME280;34665;51.886;5.436;2023-04-28T10:42:55;100834.03;;;20.47;100.00
48846;BME280;34665;51.886;5.436;2023-04-28T10:48:05;100832.66;;;20.98;100.00
48846;BME280;34665;51.886;5.436;2023-04-28T10:50:30;100821.38;;;21.53;100.00
48846;BME280;34665;51.886;5.436;2023-04-28T10:52:56;100828.25;;;23.65;100.00
48846;BME280;34665;51.886;5.436;2023-04-28T10:55:33;100842.19;;;24.57;100.00
48846;BME280;34665;51.886;5.436;2023-04-28T11:00:39;100842.19;;;23.08;100.00
48846;BME280;34665;51.886;5.436;2023-04-28T11:03:05;100842.13;;;24.38;100.00
48846;BME280;34665;51.886;5.436;2023-04-28T11:05:31;100840.69;;;23.36;100.00
48846;BME280;34665;51.886;5.436;2023-04-28T11:13:27;100826.25;;;22.65;100.00
48846;BME280;34665;51.886;5.436;2023-04-28T11:16:02;100833.34;;;23.37;100.00
48846;BME280;34665;51.886;5.436;2023-04-28T11:18:28;100827.94;;;21.57;100.00
48846;BME280;34665;51.886;5.436;2023-04-28T11:20:54;100822.25;;;22.10;100.00
48846;BME280;34665;51.886;5.436;2023-04-28T11:25:53;100815.97;;;22.35;100.00
48846;BME280;34665;51.886;5.436;2023-04-28T11:28:18;100821.84;;;23.40;100.00
48846;BME280;34665;51.886;5.436;2023-04-28T11:30:45;100819.50;;;22.31;100.00
48846;BME280;34665;51.886;5.436;2023-04-28T11:33:10;100832.06;;;23.18;100.00
48846;BME280;34665;51.886;5.436;2023-04-28T11:35:39;100815.91;;;23.32;100.00
48846;BME280;34665;51.886;5.436;2023-04-28T11:38:05;100826.94;;;23.01;100.00
48846;BME280;34665;51.886;5.436;2023-04-28T11:40:31;100826.00;;;22.56;100.00
48846;BME280;34665;51.886;5.436;2023-04-28T11:42:56;100824.41;;;23.20;100.00
48846;BME280;34665;51.886;5.436;2023-04-28T11:45:24;100826.94;;;23.01;100.00
48846;BME280;34665;51.886;5.436;2023-04-28T11:47:49;100829.09;;;23.10;100.00
48846;BME280;34665;51.886;5.436;2023-04-28T11:50:14;100830.81;;;22.90;100.00
48846;BME280;34665;51.886;5.436;2023-04-28T11:52:49;100837.72;;;21.53;100.00
48846;BME280;34665;51.886;5.436;2023-04-28T11:55:15;100835.56;;;21.60;100.00
48846;BME280;34665;51.886;5.436;2023-04-28T11:57:41;100836.41;;;23.14;100.00
48846;BME280;34665;51.886;5.436;2023-04-28T12:00:12;100845.19;;;23.06;100.00
48846;BME280;34665;51.886;5.436;2023-04-28T12:02:39;100839.16;;;21.97;100.00
48846;BME280;34665;51.886;5.436;2023-04-28T12:05:05;100833.59;;;21.40;100.00
48846;BME280;34665;51.886;5.436;2023-04-28T12:07:38;100836.84;;;21.31;100.00
48846;BME280;34665;51.886;5.436;2023-04-28T12:12:36;100841.88;;;21.97;100.00
48846;BME280;34665;51.886;5.436;2023-04-28T12:15:02;100851.47;;;23.01;100.00
48846;BME280;34665;51.886;5.436;2023-04-28T12:17:38;100846.72;;;22.57;100.00
48846;BME280;34665;51.886;5.436;2023-04-28T12:20:05;100846.75;;;21.89;100.00
48846;BME280;34665;51.886;5.436;2023-04-28T12:22:41;100842.13;;;22.21;100.00
48846;BME280;34665;51.886;5.436;2023-04-28T12:25:07;100837.78;;;21.89;100.00
48846;BME280;34665;51.886;5.436;2023-04-28T12:27:33;100850.03;;;22.12;100.00
48846;BME280;34665;51.886;5.436;2023-04-28T12:30:00;100845.94;;;22.25;100.00
48846;BME280;34665;51.886;5.436;2023-04-28T12:32:36;100842.41;;;22.25;100.00
48846;BME280;34665;51.886;5.436;2023-04-28T12:35:02;100841.56;;;22.34;100.00
48846;BME280;34665;51.886;5.436;2023-04-28T12:37:29;100837.44;;;22.68;100.00
48846;BME280;34665;51.886;5.436;2023-04-28T12:39:55;100860.00;;;22.84;100.00
48846;BME280;34665;51.886;5.436;2023-04-28T12:42:20;100847.19;;;21.34;100.00
48846;BME280;34665;51.886;5.436;2023-04-28T12:44:47;100851.09;;;22.53;100.00
48846;BME280;34665;51.886;5.436;2023-04-28T12:47:14;100855.53;;;23.65;100.00
48846;BME280;34665;51.886;5.436;2023-04-28T12:49:42;100856.78;;;24.47;100.00
48846;BME280;34665;51.886;5.436;2023-04-28T12:52:08;100851.03;;;23.39;100.00
48846;BME280;34665;51.886;5.436;2023-04-28T12:54:35;100859.44;;;23.53;100.00
48846;BME280;34665;51.886;5.436;2023-04-28T12:57:01;100859.09;;;23.10;100.00
48846;BME280;34665;51.886;5.436;2023-04-28T12:59:27;100850.06;;;23.65;100.00
48846;BME280;34665;51.886;5.436;2023-04-28T13:01:53;100854.94;;;23.28;100.00
48846;BME280;34665;51.886;5.436;2023-04-28T13:04:19;100875.88;;;23.43;100.00
48846;BME280;34665;51.886;5.436;2023-04-28T13:06:45;100870.19;;;24.97;100.00